sensor_id;sensor_type;location;lat;lon;timestamp;pressure;altitude;pressure_sealevel;temperature;humidity
68199;BME280;55021;51.554;17.044;2022-12-29T00:04:45;100242.44;;;9.10;62.53
68199;BME280;55021;51.554;17.044;2022-12-29T00:19:48;100206.06;;;9.14;62.10
68199;BME280;55021;51.554;17.044;2022-12-29T00:34:51;100185.78;;;9.10;62.33
68199;BME280;55021;51.554;17.044;2022-12-29T00:49:53;100188.78;;;8.80;63.09
68199;BME280;55021;51.554;17.044;2022-12-29T01:04:55;100151.50;;;8.66;62.68
68199;BME280;55021;51.554;17.044;2022-12-29T01:19:58;100158.59;;;8.94;62.26
68199;BME280;55021;51.554;17.044;2022-12-29T01:35:00;100126.81;;;8.88;62.36
68199;BME280;55021;51.554;17.044;2022-12-29T01:50:07;100138.53;;;8.79;62.40
68199;BME280;55021;51.554;17.044;2022-12-29T02:05:16;100106.13;;;9.24;61.06
68199;BME280;55021;51.554;17.044;2022-12-29T02:20:45;100102.19;;;9.01;61.20
68199;BME280;55021;51.554;17.044;2022-12-29T02:35:56;100093.31;;;8.91;62.09
68199;BME280;55021;51.554;17.044;2022-12-29T02:51:06;100073.69;;;8.98;61.51
68199;BME280;55021;51.554;17.044;2022-12-29T03:06:31;100064.44;;;9.01;60.38
68199;BME280;55021;51.554;17.044;2022-12-29T03:21:38;100012.34;;;8.28;60.94
68199;BME280;55021;51.554;17.044;2022-12-29T03:36:45;100067.63;;;9.04;60.06
68199;BME280;55021;51.554;17.044;2022-12-29T03:51:49;100055.38;;;9.28;60.61
68199;BME280;55021;51.554;17.044;2022-12-29T04:06:52;100024.41;;;8.96;62.38
68199;BME280;55021;51.554;17.044;2022-12-29T04:21:54;100023.78;;;9.02;62.33
68199;BME280;55021;51.554;17.044;2022-12-29T04:36:57;100031.03;;;8.84;62.90
68199;BME280;55021;51.554;17.044;2022-12-29T04:51:59;100020.84;;;8.78;61.55
68199;BME280;55021;51.554;17.044;2022-12-29T05:07:01;100008.69;;;8.92;60.51
68199;BME280;55021;51.554;17.044;2022-12-29T05:22:04;99991.56;;;9.44;58.10
68199;BME280;55021;51.554;17.044;2022-12-29T05:37:06;99949.31;;;9.35;58.86
68199;BME280;55021;51.554;17.044;2022-12-29T05:52:09;99959.81;;;9.38;58.22
68199;BME280;55021;51.554;17.044;2022-12-29T06:07:11;99963.50;;;9.37;58.36
68199;BME280;55021;51.554;17.044;2022-12-29T06:22:13;99952.03;;;9.35;58.32
68199;BME280;55021;51.554;17.044;2022-12-29T06:37:16;99964.34;;;9.38;57.91
68199;BME280;55021;51.554;17.044;2022-12-29T06:52:18;99972.59;;;9.62;56.67
68199;BME280;55021;51.554;17.044;2022-12-29T07:07:21;99982.50;;;9.79;55.56
68199;BME280;55021;51.554;17.044;2022-12-29T07:22:26;99978.56;;;9.99;55.02
68199;BME280;55021;51.554;17.044;2022-12-29T07:37:29;99979.19;;;9.93;56.14
68199;BME280;55021;51.554;17.044;2022-12-29T07:52:31;99972.03;;;10.18;55.23
68199;BME280;55021;51.554;17.044;2022-12-29T08:07:33;99969.00;;;10.13;56.21
68199;BME280;55021;51.554;17.044;2022-12-29T08:22:36;99983.44;;;10.37;55.02
68199;BME280;55021;51.554;17.044;2022-12-29T08:37:38;99982.59;;;10.37;55.97
68199;BME280;55021;51.554;17.044;2022-12-29T08:52:41;99979.88;;;10.37;56.77
68199;BME280;55021;51.554;17.044;2022-12-29T09:07:43;99991.84;;;10.76;57.23
68199;BME280;55021;51.554;17.044;2022-12-29T09:22:46;99979.69;;;10.96;57.16
68199;BME280;55021;51.554;17.044;2022-12-29T09:37:49;99980.84;;;10.86;57.52
68199;BME280;55021;51.554;17.044;2022-12-29T09:52:54;99967.84;;;10.81;58.01
68199;BME280;55021;51.554;17.044;2022-12-29T10:08:07;99970.22;;;11.17;57.43
68199;BME280;55021;51.554;17.044;2022-12-29T10:23:27;99955.94;;;11.55;56.48
68199;BME280;55021;51.554;17.044;2022-12-29T10:38:36;99955.94;;;11.55;56.00
68199;BME280;55021;51.554;17.044;2022-12-29T10:53:43;99934.66;;;11.44;56.13
68199;BME280;55021;51.554;17.044;2022-12-29T11:08:53;99911.44;;;11.49;56.53
68199;BME280;55021;51.554;17.044;2022-12-29T11:23:59;99911.25;;;11.51;56.94
68199;BME280;55021;51.554;17.044;2022-12-29T11:39:03;99899.94;;;11.31;57.08
68199;BME280;55021;51.554;17.044;2022-12-29T11:54:05;99900.13;;;11.38;57.66
68199;BME280;55021;51.554;17.044;2022-12-29T12:09:16;99874.38;;;11.34;57.05
68199;BME280;55021;51.554;17.044;2022-12-29T12:24:35;99875.06;;;11.44;56.29
68199;BME280;55021;51.554;17.044;2022-12-29T12:39:48;99876.66;;;12.08;54.89
68199;BME280;55021;51.554;17.044;2022-12-29T12:55:06;99816.81;;;11.79;54.21
68199;BME280;55021;51.554;17.044;2022-12-29T13:10:25;99862.19;;;12.24;54.06
68199;BME280;55021;51.554;17.044;2022-12-29T13:25:37;99868.91;;;12.28;54.84
68199;BME280;55021;51.554;17.044;2022-12-29T13:40:45;99876.50;;;12.40;54.17
68199;BME280;55021;51.554;17.044;2022-12-29T13:55:52;99902.59;;;11.64;56.31
68199;BME280;55021;51.554;17.044;2022-12-29T14:10:56;99909.91;;;11.47;55.87
68199;BME280;55021;51.554;17.044;2022-12-29T14:26:11;99906.09;;;11.09;57.12
68199;BME280;55021;51.554;17.044;2022-12-29T14:41:24;99911.34;;;10.94;57.67
68199;BME280;55021;51.554;17.044;2022-12-29T14:56:39;99916.75;;;11.11;58.16
68199;BME280;55021;51.554;17.044;2022-12-29T15:11:48;99920.31;;;10.63;59.25
68199;BME280;55021;51.554;17.044;2022-12-29T15:26:55;99911.00;;;10.81;58.28
68199;BME280;55021;51.554;17.044;2022-12-29T15:42:05;99900.50;;;10.54;59.77
68199;BME280;55021;51.554;17.044;2022-12-29T15:57:22;99933.47;;;10.74;58.93
68199;BME280;55021;51.554;17.044;2022-12-29T16:12:29;99940.38;;;10.52;59.57
68199;BME280;55021;51.554;17.044;2022-12-29T16:27:36;99936.09;;;10.41;60.10
68199;BME280;55021;51.554;17.044;2022-12-29T16:42:46;99957.69;;;10.75;58.30
68199;BME280;55021;51.554;17.044;2022-12-29T16:57:50;99968.69;;;10.90;57.87
68199;BME280;55021;51.554;17.044;2022-12-29T17:12:54;99972.06;;;10.92;58.20
68199;BME280;55021;51.554;17.044;2022-12-29T17:27:59;99987.56;;;10.08;60.44
68199;BME280;55021;51.554;17.044;2022-12-29T17:43:02;99985.56;;;10.60;58.44
68199;BME280;55021;51.554;17.044;2022-12-29T17:58:15;99974.44;;;10.29;58.76
68199;BME280;55021;51.554;17.044;2022-12-29T18:13:21;99998.00;;;10.45;58.84
68199;BME280;55021;51.554;17.044;2022-12-29T18:28:25;99997.03;;;10.20;59.28
68199;BME280;55021;51.554;17.044;2022-12-29T18:43:28;100029.97;;;10.15;59.81
68199;BME280;55021;51.554;17.044;2022-12-29T18:58:55;100018.06;;;10.00;60.74
68199;BME280;55021;51.554;17.044;2022-12-29T19:13:57;100022.91;;;9.63;61.39
68199;BME280;55021;51.554;17.044;2022-12-29T19:29:02;100023.13;;;9.44;62.05
68199;BME280;55021;51.554;17.044;2022-12-29T19:44:05;100028.59;;;9.77;60.94
68199;BME280;55021;51.554;17.044;2022-12-29T19:59:07;100042.56;;;9.73;61.10
68199;BME280;55021;51.554;17.044;2022-12-29T20:14:10;100048.41;;;9.43;62.22
68199;BME280;55021;51.554;17.044;2022-12-29T20:29:13;100051.66;;;9.98;60.67
68199;BME280;55021;51.554;17.044;2022-12-29T20:44:16;99993.91;;;8.96;61.86
68199;BME280;55021;51.554;17.044;2022-12-29T20:59:19;100082.09;;;9.56;61.75
68199;BME280;55021;51.554;17.044;2022-12-29T21:14:21;100069.94;;;9.52;61.67
68199;BME280;55021;51.554;17.044;2022-12-29T21:29:24;100059.94;;;9.27;62.45
68199;BME280;55021;51.554;17.044;2022-12-29T21:44:26;100084.19;;;9.62;61.90
68199;BME280;55021;51.554;17.044;2022-12-29T21:59:29;100075.78;;;9.65;61.85
68199;BME280;55021;51.554;17.044;2022-12-29T22:14:31;100081.22;;;9.73;62.08
68199;BME280;55021;51.554;17.044;2022-12-29T22:29:34;100049.38;;;9.59;62.18
68199;BME280;55021;51.554;17.044;2022-12-29T22:44:36;100078.94;;;9.87;61.98
68199;BME280;55021;51.554;17.044;2022-12-29T22:59:39;100071.97;;;9.76;62.62
68199;BME280;55021;51.554;17.044;2022-12-29T23:14:43;100072.53;;;9.62;62.68
68199;BME280;55021;51.554;17.044;2022-12-29T23:29:45;100093.97;;;9.20;64.04
68199;BME280;55021;51.554;17.044;2022-12-29T23:44:47;100083.13;;;9.55;62.81
68199;BME280;55021;51.554;17.044;2022-12-29T23:59:50;100099.03;;;8.88;64.96
